<?xml version="1.0" encoding="UTF-8" standalone="no" ?>
<gpx xmlns="http://www.topografix.com/GPX/1/1" xmlns:xsi="http://www.w3.org/2001/XMLSchema-instance" xsi:schemaLocation="http://www.topografix.com/GPX/1/1 http://www.topografix.com/GPX/1/1/gpx.xsd" version="1.1" creator="VisuGPX - https://www.visugpx.com">
  <metadata>
    <name>Champex - Trient</name>
    <desc><![CDATA[8eme partie champex le trient]]></desc>
  </metadata>
  <wpt lat="46.03067" lon="7.11522">
    <ele>1471</ele>
    <name><![CDATA[Gîte de Champex]]></name>
  </wpt>
  <wpt lat="46.03363" lon="7.1029">
    <ele>1492</ele>
    <name><![CDATA[Chemin à gauche]]></name>
  </wpt>
  <wpt lat="46.04702" lon="7.09166">
    <ele>1343</ele>
    <name><![CDATA[Jonction route, chemin à gauche]]></name>
  </wpt>
  <wpt lat="46.05002" lon="7.07934">
    <ele>1333</ele>
    <name><![CDATA[Plan de l'Au]]></name>
  </wpt>
  <wpt lat="46.04422" lon="7.05627">
    <ele>1636</ele>
    <name><![CDATA[Chalet de la Jure]]></name>
  </wpt>
  <wpt lat="46.05483" lon="7.0502">
    <ele>1994</ele>
    <name><![CDATA[Alpage de Bovine]]></name>
  </wpt>
  <wpt lat="46.05596" lon="7.03335">
    <ele>1878</ele>
    <name><![CDATA[Chalet de la Giete]]></name>
  </wpt>
  <wpt lat="46.0577" lon="7.00162">
    <ele>1528</ele>
    <name><![CDATA[Prendre au sud le long de la Bisse]]></name>
  </wpt>
  <wpt lat="46.05285" lon="7.00065">
    <ele>1521</ele>
    <name><![CDATA[Descendre à droite, traverser la N506]]></name>
  </wpt>
  <wpt lat="46.0525" lon="6.99389">
    <ele>1302</ele>
    <name><![CDATA[Village de Trient (1297m)]]></name>
  </wpt>
  <trk>
    <name><![CDATA[Champex - Trient]]></name>
    <trkseg>
      <trkpt lat="46.03067" lon="7.11522">
        <ele>1471</ele>
        <time>2021-05-11T14:57:25+02:00</time>
      </trkpt>
      <trkpt lat="46.0315" lon="7.11187">
        <ele>1484</ele>
        <time>2021-05-11T14:57:30+02:00</time>
      </trkpt>
      <trkpt lat="46.03188" lon="7.11017">
        <ele>1485</ele>
        <time>2021-05-11T14:57:35+02:00</time>
      </trkpt>
      <trkpt lat="46.03198" lon="7.10852">
        <ele>1489</ele>
        <time>2021-05-11T14:57:40+02:00</time>
      </trkpt>
      <trkpt lat="46.03155" lon="7.10801">
        <ele>1489</ele>
        <time>2021-05-11T14:57:45+02:00</time>
      </trkpt>
      <trkpt lat="46.03149" lon="7.10743">
        <ele>1492</ele>
        <time>2021-05-11T14:57:50+02:00</time>
      </trkpt>
      <trkpt lat="46.03182" lon="7.10668">
        <ele>1492</ele>
        <time>2021-05-11T14:57:55+02:00</time>
      </trkpt>
      <trkpt lat="46.03243" lon="7.10631">
        <ele>1493</ele>
        <time>2021-05-11T14:58:00+02:00</time>
      </trkpt>
      <trkpt lat="46.03242" lon="7.1045">
        <ele>1496</ele>
        <time>2021-05-11T14:58:05+02:00</time>
      </trkpt>
      <trkpt lat="46.0327" lon="7.10384">
        <ele>1500</ele>
        <time>2021-05-11T14:58:10+02:00</time>
      </trkpt>
      <trkpt lat="46.03309" lon="7.10331">
        <ele>1498</ele>
        <time>2021-05-11T14:58:15+02:00</time>
      </trkpt>
      <trkpt lat="46.03363" lon="7.1029">
        <ele>1492</ele>
        <time>2021-05-11T14:58:20+02:00</time>
      </trkpt>
      <trkpt lat="46.03416" lon="7.1017">
        <ele>1477</ele>
        <time>2021-05-11T14:58:25+02:00</time>
      </trkpt>
      <trkpt lat="46.03397" lon="7.10039">
        <ele>1473</ele>
        <time>2021-05-11T14:58:30+02:00</time>
      </trkpt>
      <trkpt lat="46.03407" lon="7.09926">
        <ele>1464</ele>
        <time>2021-05-11T14:58:35+02:00</time>
      </trkpt>
      <trkpt lat="46.03464" lon="7.09871">
        <ele>1456</ele>
        <time>2021-05-11T14:58:40+02:00</time>
      </trkpt>
      <trkpt lat="46.03494" lon="7.09803">
        <ele>1457</ele>
        <time>2021-05-11T14:58:45+02:00</time>
      </trkpt>
      <trkpt lat="46.03527" lon="7.09773">
        <ele>1454</ele>
        <time>2021-05-11T14:58:50+02:00</time>
      </trkpt>
      <trkpt lat="46.03593" lon="7.09721">
        <ele>1440</ele>
        <time>2021-05-11T14:58:55+02:00</time>
      </trkpt>
      <trkpt lat="46.03627" lon="7.09663">
        <ele>1438</ele>
        <time>2021-05-11T14:59:00+02:00</time>
      </trkpt>
      <trkpt lat="46.03664" lon="7.09616">
        <ele>1433</ele>
        <time>2021-05-11T14:59:05+02:00</time>
      </trkpt>
      <trkpt lat="46.03712" lon="7.09603">
        <ele>1430</ele>
        <time>2021-05-11T14:59:10+02:00</time>
      </trkpt>
      <trkpt lat="46.03795" lon="7.09554">
        <ele>1424</ele>
        <time>2021-05-11T14:59:15+02:00</time>
      </trkpt>
      <trkpt lat="46.03856" lon="7.09513">
        <ele>1419</ele>
        <time>2021-05-11T14:59:20+02:00</time>
      </trkpt>
      <trkpt lat="46.03922" lon="7.09462">
        <ele>1413</ele>
        <time>2021-05-11T14:59:25+02:00</time>
      </trkpt>
      <trkpt lat="46.03975" lon="7.09419">
        <ele>1407</ele>
        <time>2021-05-11T14:59:30+02:00</time>
      </trkpt>
      <trkpt lat="46.03962" lon="7.095">
        <ele>1401</ele>
        <time>2021-05-11T14:59:35+02:00</time>
      </trkpt>
      <trkpt lat="46.0396" lon="7.09588">
        <ele>1399</ele>
        <time>2021-05-11T14:59:40+02:00</time>
      </trkpt>
      <trkpt lat="46.03982" lon="7.09635">
        <ele>1400</ele>
        <time>2021-05-11T14:59:45+02:00</time>
      </trkpt>
      <trkpt lat="46.04015" lon="7.09562">
        <ele>1394</ele>
        <time>2021-05-11T14:59:50+02:00</time>
      </trkpt>
      <trkpt lat="46.04097" lon="7.09528">
        <ele>1385</ele>
        <time>2021-05-11T14:59:55+02:00</time>
      </trkpt>
      <trkpt lat="46.0417" lon="7.09472">
        <ele>1375</ele>
        <time>2021-05-11T15:00:00+02:00</time>
      </trkpt>
      <trkpt lat="46.04285" lon="7.09387">
        <ele>1358</ele>
        <time>2021-05-11T15:00:05+02:00</time>
      </trkpt>
      <trkpt lat="46.04313" lon="7.09322">
        <ele>1352</ele>
        <time>2021-05-11T15:00:10+02:00</time>
      </trkpt>
      <trkpt lat="46.04406" lon="7.0928">
        <ele>1352</ele>
        <time>2021-05-11T15:00:15+02:00</time>
      </trkpt>
      <trkpt lat="46.0461" lon="7.09219">
        <ele>1344</ele>
        <time>2021-05-11T15:00:20+02:00</time>
      </trkpt>
      <trkpt lat="46.04702" lon="7.09166">
        <ele>1343</ele>
        <time>2021-05-11T15:00:25+02:00</time>
      </trkpt>
      <trkpt lat="46.04648" lon="7.09007">
        <ele>1336</ele>
        <time>2021-05-11T15:00:30+02:00</time>
      </trkpt>
      <trkpt lat="46.04641" lon="7.08923">
        <ele>1335</ele>
        <time>2021-05-11T15:00:35+02:00</time>
      </trkpt>
      <trkpt lat="46.04677" lon="7.08846">
        <ele>1333</ele>
        <time>2021-05-11T15:00:40+02:00</time>
      </trkpt>
      <trkpt lat="46.04747" lon="7.08672">
        <ele>1334</ele>
        <time>2021-05-11T15:00:45+02:00</time>
      </trkpt>
      <trkpt lat="46.04749" lon="7.08603">
        <ele>1345</ele>
        <time>2021-05-11T15:00:50+02:00</time>
      </trkpt>
      <trkpt lat="46.04765" lon="7.08573">
        <ele>1344</ele>
        <time>2021-05-11T15:00:55+02:00</time>
      </trkpt>
      <trkpt lat="46.04814" lon="7.08531">
        <ele>1331</ele>
        <time>2021-05-11T15:01:00+02:00</time>
      </trkpt>
      <trkpt lat="46.0484" lon="7.08446">
        <ele>1322</ele>
        <time>2021-05-11T15:01:05+02:00</time>
      </trkpt>
      <trkpt lat="46.04802" lon="7.08398">
        <ele>1335</ele>
        <time>2021-05-11T15:01:10+02:00</time>
      </trkpt>
      <trkpt lat="46.04825" lon="7.08317">
        <ele>1331</ele>
        <time>2021-05-11T15:01:15+02:00</time>
      </trkpt>
      <trkpt lat="46.04862" lon="7.08277">
        <ele>1335</ele>
        <time>2021-05-11T15:01:20+02:00</time>
      </trkpt>
      <trkpt lat="46.04919" lon="7.08252">
        <ele>1330</ele>
        <time>2021-05-11T15:01:25+02:00</time>
      </trkpt>
      <trkpt lat="46.04934" lon="7.08157">
        <ele>1331</ele>
        <time>2021-05-11T15:01:30+02:00</time>
      </trkpt>
      <trkpt lat="46.04967" lon="7.08118">
        <ele>1321</ele>
        <time>2021-05-11T15:01:35+02:00</time>
      </trkpt>
      <trkpt lat="46.04971" lon="7.07996">
        <ele>1337</ele>
        <time>2021-05-11T15:01:40+02:00</time>
      </trkpt>
      <trkpt lat="46.05002" lon="7.07934">
        <ele>1333</ele>
        <time>2021-05-11T15:01:45+02:00</time>
      </trkpt>
      <trkpt lat="46.05012" lon="7.07848">
        <ele>1340</ele>
        <time>2021-05-11T15:01:50+02:00</time>
      </trkpt>
      <trkpt lat="46.05066" lon="7.07745">
        <ele>1337</ele>
        <time>2021-05-11T15:01:55+02:00</time>
      </trkpt>
      <trkpt lat="46.05134" lon="7.07633">
        <ele>1347</ele>
        <time>2021-05-11T15:02:00+02:00</time>
      </trkpt>
      <trkpt lat="46.05162" lon="7.07565">
        <ele>1351</ele>
        <time>2021-05-11T15:02:05+02:00</time>
      </trkpt>
      <trkpt lat="46.05207" lon="7.0751">
        <ele>1341</ele>
        <time>2021-05-11T15:02:10+02:00</time>
      </trkpt>
      <trkpt lat="46.05235" lon="7.07407">
        <ele>1347</ele>
        <time>2021-05-11T15:02:15+02:00</time>
      </trkpt>
      <trkpt lat="46.05215" lon="7.07328">
        <ele>1359</ele>
        <time>2021-05-11T15:02:20+02:00</time>
      </trkpt>
      <trkpt lat="46.05207" lon="7.07244">
        <ele>1346</ele>
        <time>2021-05-11T15:02:25+02:00</time>
      </trkpt>
      <trkpt lat="46.05132" lon="7.07132">
        <ele>1364</ele>
        <time>2021-05-11T15:02:30+02:00</time>
      </trkpt>
      <trkpt lat="46.0504" lon="7.0703">
        <ele>1376</ele>
        <time>2021-05-11T15:02:35+02:00</time>
      </trkpt>
      <trkpt lat="46.04951" lon="7.06906">
        <ele>1376</ele>
        <time>2021-05-11T15:02:40+02:00</time>
      </trkpt>
      <trkpt lat="46.04868" lon="7.06807">
        <ele>1397</ele>
        <time>2021-05-11T15:02:45+02:00</time>
      </trkpt>
      <trkpt lat="46.04805" lon="7.067">
        <ele>1406</ele>
        <time>2021-05-11T15:02:50+02:00</time>
      </trkpt>
      <trkpt lat="46.04758" lon="7.06591">
        <ele>1417</ele>
        <time>2021-05-11T15:02:55+02:00</time>
      </trkpt>
      <trkpt lat="46.04714" lon="7.06563">
        <ele>1438</ele>
        <time>2021-05-11T15:03:00+02:00</time>
      </trkpt>
      <trkpt lat="46.04691" lon="7.06504">
        <ele>1442</ele>
        <time>2021-05-11T15:03:05+02:00</time>
      </trkpt>
      <trkpt lat="46.04627" lon="7.06411">
        <ele>1471</ele>
        <time>2021-05-11T15:03:10+02:00</time>
      </trkpt>
      <trkpt lat="46.04581" lon="7.06229">
        <ele>1497</ele>
        <time>2021-05-11T15:03:15+02:00</time>
      </trkpt>
      <trkpt lat="46.04478" lon="7.0611">
        <ele>1532</ele>
        <time>2021-05-11T15:03:20+02:00</time>
      </trkpt>
      <trkpt lat="46.04374" lon="7.06021">
        <ele>1584</ele>
        <time>2021-05-11T15:03:25+02:00</time>
      </trkpt>
      <trkpt lat="46.04397" lon="7.05968">
        <ele>1585</ele>
        <time>2021-05-11T15:03:30+02:00</time>
      </trkpt>
      <trkpt lat="46.04377" lon="7.05955">
        <ele>1595</ele>
        <time>2021-05-11T15:03:35+02:00</time>
      </trkpt>
      <trkpt lat="46.04428" lon="7.05829">
        <ele>1615</ele>
        <time>2021-05-11T15:03:40+02:00</time>
      </trkpt>
      <trkpt lat="46.04412" lon="7.0578">
        <ele>1626</ele>
        <time>2021-05-11T15:03:45+02:00</time>
      </trkpt>
      <trkpt lat="46.04397" lon="7.05679">
        <ele>1639</ele>
        <time>2021-05-11T15:03:50+02:00</time>
      </trkpt>
      <trkpt lat="46.04422" lon="7.05627">
        <ele>1636</ele>
        <time>2021-05-11T15:03:55+02:00</time>
      </trkpt>
      <trkpt lat="46.04432" lon="7.05478">
        <ele>1662</ele>
        <time>2021-05-11T15:04:00+02:00</time>
      </trkpt>
      <trkpt lat="46.04503" lon="7.05478">
        <ele>1668</ele>
        <time>2021-05-11T15:04:05+02:00</time>
      </trkpt>
      <trkpt lat="46.04494" lon="7.05439">
        <ele>1684</ele>
        <time>2021-05-11T15:04:10+02:00</time>
      </trkpt>
      <trkpt lat="46.04504" lon="7.05419">
        <ele>1697</ele>
        <time>2021-05-11T15:04:15+02:00</time>
      </trkpt>
      <trkpt lat="46.04499" lon="7.05347">
        <ele>1728</ele>
        <time>2021-05-11T15:04:20+02:00</time>
      </trkpt>
      <trkpt lat="46.04613" lon="7.05407">
        <ele>1759</ele>
        <time>2021-05-11T15:04:25+02:00</time>
      </trkpt>
      <trkpt lat="46.0461" lon="7.05363">
        <ele>1779</ele>
        <time>2021-05-11T15:04:30+02:00</time>
      </trkpt>
      <trkpt lat="46.04641" lon="7.05361">
        <ele>1792</ele>
        <time>2021-05-11T15:04:35+02:00</time>
      </trkpt>
      <trkpt lat="46.04627" lon="7.05293">
        <ele>1816</ele>
        <time>2021-05-11T15:04:40+02:00</time>
      </trkpt>
      <trkpt lat="46.04669" lon="7.05204">
        <ele>1859</ele>
        <time>2021-05-11T15:04:45+02:00</time>
      </trkpt>
      <trkpt lat="46.04691" lon="7.05213">
        <ele>1863</ele>
        <time>2021-05-11T15:04:50+02:00</time>
      </trkpt>
      <trkpt lat="46.04718" lon="7.05143">
        <ele>1890</ele>
        <time>2021-05-11T15:04:55+02:00</time>
      </trkpt>
      <trkpt lat="46.04735" lon="7.05076">
        <ele>1910</ele>
        <time>2021-05-11T15:05:00+02:00</time>
      </trkpt>
      <trkpt lat="46.04776" lon="7.05109">
        <ele>1916</ele>
        <time>2021-05-11T15:05:05+02:00</time>
      </trkpt>
      <trkpt lat="46.04822" lon="7.05202">
        <ele>1919</ele>
        <time>2021-05-11T15:05:10+02:00</time>
      </trkpt>
      <trkpt lat="46.04866" lon="7.05257">
        <ele>1924</ele>
        <time>2021-05-11T15:05:15+02:00</time>
      </trkpt>
      <trkpt lat="46.04913" lon="7.05298">
        <ele>1928</ele>
        <time>2021-05-11T15:05:20+02:00</time>
      </trkpt>
      <trkpt lat="46.04981" lon="7.05285">
        <ele>1937</ele>
        <time>2021-05-11T15:05:25+02:00</time>
      </trkpt>
      <trkpt lat="46.05038" lon="7.05285">
        <ele>1948</ele>
        <time>2021-05-11T15:05:30+02:00</time>
      </trkpt>
      <trkpt lat="46.05176" lon="7.05439">
        <ele>1939</ele>
        <time>2021-05-11T15:05:35+02:00</time>
      </trkpt>
      <trkpt lat="46.05278" lon="7.05454">
        <ele>1949</ele>
        <time>2021-05-11T15:05:40+02:00</time>
      </trkpt>
      <trkpt lat="46.05524" lon="7.05436">
        <ele>1955</ele>
        <time>2021-05-11T15:05:45+02:00</time>
      </trkpt>
      <trkpt lat="46.05536" lon="7.05326">
        <ele>1969</ele>
        <time>2021-05-11T15:05:50+02:00</time>
      </trkpt>
      <trkpt lat="46.05539" lon="7.05214">
        <ele>1977</ele>
        <time>2021-05-11T15:05:55+02:00</time>
      </trkpt>
      <trkpt lat="46.05546" lon="7.05061">
        <ele>1974</ele>
        <time>2021-05-11T15:06:00+02:00</time>
      </trkpt>
      <trkpt lat="46.05483" lon="7.0502">
        <ele>1994</ele>
        <time>2021-05-11T15:06:05+02:00</time>
      </trkpt>
      <trkpt lat="46.05484" lon="7.04942">
        <ele>1996</ele>
        <time>2021-05-11T15:06:10+02:00</time>
      </trkpt>
      <trkpt lat="46.05496" lon="7.04903">
        <ele>1995</ele>
        <time>2021-05-11T15:06:15+02:00</time>
      </trkpt>
      <trkpt lat="46.05496" lon="7.04855">
        <ele>2000</ele>
        <time>2021-05-11T15:06:20+02:00</time>
      </trkpt>
      <trkpt lat="46.05516" lon="7.04835">
        <ele>1994</ele>
        <time>2021-05-11T15:06:25+02:00</time>
      </trkpt>
      <trkpt lat="46.05516" lon="7.04715">
        <ele>2010</ele>
        <time>2021-05-11T15:06:30+02:00</time>
      </trkpt>
      <trkpt lat="46.05534" lon="7.04665">
        <ele>2014</ele>
        <time>2021-05-11T15:06:35+02:00</time>
      </trkpt>
      <trkpt lat="46.05553" lon="7.04644">
        <ele>2012</ele>
        <time>2021-05-11T15:06:40+02:00</time>
      </trkpt>
      <trkpt lat="46.05577" lon="7.04627">
        <ele>2009</ele>
        <time>2021-05-11T15:06:45+02:00</time>
      </trkpt>
      <trkpt lat="46.05613" lon="7.04632">
        <ele>1997</ele>
        <time>2021-05-11T15:06:50+02:00</time>
      </trkpt>
      <trkpt lat="46.05679" lon="7.04523">
        <ele>2020</ele>
        <time>2021-05-11T15:06:55+02:00</time>
      </trkpt>
      <trkpt lat="46.05703" lon="7.04493">
        <ele>2028</ele>
        <time>2021-05-11T15:07:00+02:00</time>
      </trkpt>
      <trkpt lat="46.05754" lon="7.04457">
        <ele>2021</ele>
        <time>2021-05-11T15:07:05+02:00</time>
      </trkpt>
      <trkpt lat="46.05732" lon="7.04419">
        <ele>2038</ele>
        <time>2021-05-11T15:07:10+02:00</time>
      </trkpt>
      <trkpt lat="46.0572" lon="7.04386">
        <ele>2045</ele>
        <time>2021-05-11T15:07:15+02:00</time>
      </trkpt>
      <trkpt lat="46.05732" lon="7.0434">
        <ele>2041</ele>
        <time>2021-05-11T15:07:20+02:00</time>
      </trkpt>
      <trkpt lat="46.05756" lon="7.0431">
        <ele>2027</ele>
        <time>2021-05-11T15:07:25+02:00</time>
      </trkpt>
      <trkpt lat="46.05753" lon="7.04269">
        <ele>2033</ele>
        <time>2021-05-11T15:07:30+02:00</time>
      </trkpt>
      <trkpt lat="46.05764" lon="7.04223">
        <ele>2029</ele>
        <time>2021-05-11T15:07:35+02:00</time>
      </trkpt>
      <trkpt lat="46.05783" lon="7.04189">
        <ele>2013</ele>
        <time>2021-05-11T15:07:40+02:00</time>
      </trkpt>
      <trkpt lat="46.05789" lon="7.0408">
        <ele>2014</ele>
        <time>2021-05-11T15:07:45+02:00</time>
      </trkpt>
      <trkpt lat="46.05751" lon="7.04016">
        <ele>2022</ele>
        <time>2021-05-11T15:07:50+02:00</time>
      </trkpt>
      <trkpt lat="46.05753" lon="7.03861">
        <ele>1992</ele>
        <time>2021-05-11T15:07:55+02:00</time>
      </trkpt>
      <trkpt lat="46.05758" lon="7.03584">
        <ele>1931</ele>
        <time>2021-05-11T15:08:00+02:00</time>
      </trkpt>
      <trkpt lat="46.05637" lon="7.03531">
        <ele>1912</ele>
        <time>2021-05-11T15:08:05+02:00</time>
      </trkpt>
      <trkpt lat="46.05595" lon="7.03488">
        <ele>1897</ele>
        <time>2021-05-11T15:08:10+02:00</time>
      </trkpt>
      <trkpt lat="46.05575" lon="7.03428">
        <ele>1885</ele>
        <time>2021-05-11T15:08:15+02:00</time>
      </trkpt>
      <trkpt lat="46.05596" lon="7.03335">
        <ele>1878</ele>
        <time>2021-05-11T15:08:20+02:00</time>
      </trkpt>
      <trkpt lat="46.05622" lon="7.03266">
        <ele>1869</ele>
        <time>2021-05-11T15:08:25+02:00</time>
      </trkpt>
      <trkpt lat="46.05627" lon="7.03187">
        <ele>1862</ele>
        <time>2021-05-11T15:08:30+02:00</time>
      </trkpt>
      <trkpt lat="46.05657" lon="7.0309">
        <ele>1857</ele>
        <time>2021-05-11T15:08:35+02:00</time>
      </trkpt>
      <trkpt lat="46.05732" lon="7.02977">
        <ele>1846</ele>
        <time>2021-05-11T15:08:40+02:00</time>
      </trkpt>
      <trkpt lat="46.05816" lon="7.02923">
        <ele>1827</ele>
        <time>2021-05-11T15:08:45+02:00</time>
      </trkpt>
      <trkpt lat="46.0584" lon="7.02818">
        <ele>1825</ele>
        <time>2021-05-11T15:08:50+02:00</time>
      </trkpt>
      <trkpt lat="46.05847" lon="7.02675">
        <ele>1797</ele>
        <time>2021-05-11T15:08:55+02:00</time>
      </trkpt>
      <trkpt lat="46.05826" lon="7.02663">
        <ele>1804</ele>
        <time>2021-05-11T15:09:00+02:00</time>
      </trkpt>
      <trkpt lat="46.05775" lon="7.02554">
        <ele>1771</ele>
        <time>2021-05-11T15:09:05+02:00</time>
      </trkpt>
      <trkpt lat="46.05583" lon="7.02425">
        <ele>1733</ele>
        <time>2021-05-11T15:09:10+02:00</time>
      </trkpt>
      <trkpt lat="46.05572" lon="7.02372">
        <ele>1730</ele>
        <time>2021-05-11T15:09:15+02:00</time>
      </trkpt>
      <trkpt lat="46.05567" lon="7.0231">
        <ele>1727</ele>
        <time>2021-05-11T15:09:20+02:00</time>
      </trkpt>
      <trkpt lat="46.05556" lon="7.02252">
        <ele>1730</ele>
        <time>2021-05-11T15:09:25+02:00</time>
      </trkpt>
      <trkpt lat="46.05668" lon="7.0201">
        <ele>1694</ele>
        <time>2021-05-11T15:09:30+02:00</time>
      </trkpt>
      <trkpt lat="46.05666" lon="7.01963">
        <ele>1696</ele>
        <time>2021-05-11T15:09:35+02:00</time>
      </trkpt>
      <trkpt lat="46.05685" lon="7.01911">
        <ele>1684</ele>
        <time>2021-05-11T15:09:40+02:00</time>
      </trkpt>
      <trkpt lat="46.05724" lon="7.01864">
        <ele>1664</ele>
        <time>2021-05-11T15:09:45+02:00</time>
      </trkpt>
      <trkpt lat="46.05729" lon="7.01609">
        <ele>1639</ele>
        <time>2021-05-11T15:09:50+02:00</time>
      </trkpt>
      <trkpt lat="46.0571" lon="7.0155">
        <ele>1642</ele>
        <time>2021-05-11T15:09:55+02:00</time>
      </trkpt>
      <trkpt lat="46.05705" lon="7.0148">
        <ele>1633</ele>
        <time>2021-05-11T15:10:00+02:00</time>
      </trkpt>
      <trkpt lat="46.05689" lon="7.01443">
        <ele>1646</ele>
        <time>2021-05-11T15:10:05+02:00</time>
      </trkpt>
      <trkpt lat="46.05732" lon="7.01404">
        <ele>1615</ele>
        <time>2021-05-11T15:10:10+02:00</time>
      </trkpt>
      <trkpt lat="46.05747" lon="7.01306">
        <ele>1612</ele>
        <time>2021-05-11T15:10:15+02:00</time>
      </trkpt>
      <trkpt lat="46.05718" lon="7.01112">
        <ele>1599</ele>
        <time>2021-05-11T15:10:20+02:00</time>
      </trkpt>
      <trkpt lat="46.05736" lon="7.01051">
        <ele>1585</ele>
        <time>2021-05-11T15:10:25+02:00</time>
      </trkpt>
      <trkpt lat="46.05769" lon="7.00993">
        <ele>1572</ele>
        <time>2021-05-11T15:10:30+02:00</time>
      </trkpt>
      <trkpt lat="46.05777" lon="7.0082">
        <ele>1557</ele>
        <time>2021-05-11T15:10:35+02:00</time>
      </trkpt>
      <trkpt lat="46.0575" lon="7.00579">
        <ele>1525</ele>
        <time>2021-05-11T15:10:40+02:00</time>
      </trkpt>
      <trkpt lat="46.0573" lon="7.00336">
        <ele>1523</ele>
        <time>2021-05-11T15:10:45+02:00</time>
      </trkpt>
      <trkpt lat="46.05763" lon="7.00272">
        <ele>1521</ele>
        <time>2021-05-11T15:10:50+02:00</time>
      </trkpt>
      <trkpt lat="46.0577" lon="7.00162">
        <ele>1528</ele>
        <time>2021-05-11T15:10:55+02:00</time>
      </trkpt>
      <trkpt lat="46.05744" lon="7.00114">
        <ele>1526</ele>
        <time>2021-05-11T15:11:00+02:00</time>
      </trkpt>
      <trkpt lat="46.05704" lon="7.00079">
        <ele>1524</ele>
        <time>2021-05-11T15:11:05+02:00</time>
      </trkpt>
      <trkpt lat="46.05647" lon="7.00088">
        <ele>1528</ele>
        <time>2021-05-11T15:11:10+02:00</time>
      </trkpt>
      <trkpt lat="46.05534" lon="7.00018">
        <ele>1506</ele>
        <time>2021-05-11T15:11:15+02:00</time>
      </trkpt>
      <trkpt lat="46.05476" lon="7.00063">
        <ele>1530</ele>
        <time>2021-05-11T15:11:20+02:00</time>
      </trkpt>
      <trkpt lat="46.05285" lon="7.00065">
        <ele>1521</ele>
        <time>2021-05-11T15:11:25+02:00</time>
      </trkpt>
      <trkpt lat="46.05288" lon="7.00042">
        <ele>1506</ele>
        <time>2021-05-11T15:11:30+02:00</time>
      </trkpt>
      <trkpt lat="46.05268" lon="7.00006">
        <ele>1483</ele>
        <time>2021-05-11T15:11:35+02:00</time>
      </trkpt>
      <trkpt lat="46.05269" lon="6.99945">
        <ele>1455</ele>
        <time>2021-05-11T15:11:40+02:00</time>
      </trkpt>
      <trkpt lat="46.05292" lon="6.99914">
        <ele>1441</ele>
        <time>2021-05-11T15:11:45+02:00</time>
      </trkpt>
      <trkpt lat="46.05279" lon="6.99798">
        <ele>1386</ele>
        <time>2021-05-11T15:11:50+02:00</time>
      </trkpt>
      <trkpt lat="46.05249" lon="6.99739">
        <ele>1366</ele>
        <time>2021-05-11T15:11:55+02:00</time>
      </trkpt>
      <trkpt lat="46.05212" lon="6.99751">
        <ele>1371</ele>
        <time>2021-05-11T15:12:00+02:00</time>
      </trkpt>
      <trkpt lat="46.05164" lon="6.99781">
        <ele>1384</ele>
        <time>2021-05-11T15:12:05+02:00</time>
      </trkpt>
      <trkpt lat="46.05091" lon="6.9977">
        <ele>1387</ele>
        <time>2021-05-11T15:12:10+02:00</time>
      </trkpt>
      <trkpt lat="46.0502" lon="6.9978">
        <ele>1393</ele>
        <time>2021-05-11T15:12:15+02:00</time>
      </trkpt>
      <trkpt lat="46.04843" lon="6.99709">
        <ele>1364</ele>
        <time>2021-05-11T15:12:20+02:00</time>
      </trkpt>
      <trkpt lat="46.04779" lon="6.99703">
        <ele>1363</ele>
        <time>2021-05-11T15:12:25+02:00</time>
      </trkpt>
      <trkpt lat="46.04717" lon="6.99673">
        <ele>1352</ele>
        <time>2021-05-11T15:12:30+02:00</time>
      </trkpt>
      <trkpt lat="46.04676" lon="6.9963">
        <ele>1344</ele>
        <time>2021-05-11T15:12:35+02:00</time>
      </trkpt>
      <trkpt lat="46.04632" lon="6.99606">
        <ele>1339</ele>
        <time>2021-05-11T15:12:40+02:00</time>
      </trkpt>
      <trkpt lat="46.04628" lon="6.9957">
        <ele>1333</ele>
        <time>2021-05-11T15:12:45+02:00</time>
      </trkpt>
      <trkpt lat="46.04647" lon="6.99507">
        <ele>1327</ele>
        <time>2021-05-11T15:12:50+02:00</time>
      </trkpt>
      <trkpt lat="46.04648" lon="6.99426">
        <ele>1328</ele>
        <time>2021-05-11T15:12:55+02:00</time>
      </trkpt>
      <trkpt lat="46.04664" lon="6.99398">
        <ele>1328</ele>
        <time>2021-05-11T15:13:00+02:00</time>
      </trkpt>
      <trkpt lat="46.05119" lon="6.99381">
        <ele>1308</ele>
        <time>2021-05-11T15:13:05+02:00</time>
      </trkpt>
      <trkpt lat="46.0525" lon="6.99389">
        <ele>1302</ele>
        <time>2021-05-11T15:13:10+02:00</time>
      </trkpt>
    </trkseg>
  </trk>
</gpx>